Time;durP1;ratioP1;P1;durP2;ratioP2;P2;SDS_P1;SDS_P2;PMS_P1;PMS_P2;Temp;Humidity;BMP_temperature;BMP_pressure;BME280_temperature;BME280_humidity;BME280_pressure;Samples;Min_cycle;Max_cycle;Signal;HPM_P1;HPM_P2
2022/11/26 00:00:36;;;;;;;22.70;9.55;;;4.10;99.90;;;;;;5106705;28;20447;-84
2022/11/26 00:03:02;;;;;;;17.80;9.50;;;4.10;99.90;;;;;;5107881;28;20051;-84
2022/11/26 00:05:31;;;;;;;23.98;9.13;;;4.00;99.90;;;;;;5108003;28;20059;-84
2022/11/26 00:07:59;;;;;;;19.20;10.05;;;4.00;99.90;;;;;;5106665;28;20040;-84
2022/11/26 00:10:28;;;;;;;25.17;9.73;;;4.00;99.90;;;;;;5106499;28;20490;-84
2022/11/26 00:12:55;;;;;;;21.65;8.60;;;4.00;99.90;;;;;;5106550;28;20044;-83
2022/11/26 00:15:26;;;;;;;26.80;10.90;;;4.00;99.90;;;;;;5105441;28;20056;-83
2022/11/26 00:17:53;;;;;;;23.40;9.25;;;4.00;99.90;;;;;;5106588;28;20047;-83
2022/11/26 00:20:23;;;;;;;24.08;11.18;;;4.00;99.90;;;;;;5106715;28;20079;-83
2022/11/26 00:22:52;;;;;;;20.00;11.63;;;3.90;99.90;;;;;;5089823;28;20040;-83
2022/11/26 00:25:24;;;;;;;25.85;11.82;;;3.90;99.90;;;;;;5106303;28;20408;-83
2022/11/26 00:27:53;;;;;;;23.67;11.45;;;3.90;99.90;;;;;;5106091;28;20055;-83
2022/11/26 00:30:26;;;;;;;28.05;12.52;;;3.80;99.90;;;;;;5105599;28;20039;-84
2022/11/26 00:32:53;;;;;;;22.55;11.25;;;3.80;99.90;;;;;;5105119;28;20096;-84
2022/11/26 00:35:19;;;;;;;28.27;13.43;;;3.80;99.90;;;;;;5105843;28;20048;-83
2022/11/26 00:37:49;;;;;;;29.63;12.60;;;3.80;99.90;;;;;;5106702;28;20579;-84
2022/11/26 00:40:24;;;;;;;28.80;13.40;;;3.80;99.90;;;;;;5106873;28;20153;-84
2022/11/26 00:42:51;;;;;;;26.90;10.55;;;3.70;99.90;;;;;;5107301;28;20425;-83
2022/11/26 00:45:23;;;;;;;21.80;11.65;;;3.80;99.90;;;;;;5107464;28;20043;-84
2022/11/26 00:47:49;;;;;;;29.30;10.77;;;3.80;99.90;;;;;;5087609;28;20043;-84
2022/11/26 00:50:17;;;;;;;20.55;11.23;;;3.80;99.90;;;;;;5106402;28;20051;-83
2022/11/26 00:52:45;;;;;;;24.00;11.38;;;4.20;99.90;;;;;;5108529;28;20047;-84
2022/11/26 00:55:30;;;;;;;30.25;14.30;;;3.80;99.90;;;;;;5110183;28;20043;-83
2022/11/26 00:57:56;;;;;;;27.70;14.23;;;3.80;99.90;;;;;;5109487;28;20525;-83
2022/11/26 01:00:25;;;;;;;28.63;12.13;;;3.80;99.90;;;;;;5110119;28;20512;-83
2022/11/26 01:02:51;;;;;;;22.15;11.45;;;3.80;99.90;;;;;;5109464;28;20059;-82
2022/11/26 01:05:17;;;;;;;18.83;11.18;;;3.80;99.90;;;;;;5111041;28;20050;-83
2022/11/26 01:07:44;;;;;;;24.48;10.75;;;3.80;99.90;;;;;;5110410;27;20035;-83
2022/11/26 01:10:31;;;;;;;26.77;11.05;;;3.80;99.90;;;;;;5109244;28;20043;-83
2022/11/26 01:12:57;;;;;;;21.75;10.63;;;3.70;99.90;;;;;;5110398;28;20044;-83
2022/11/26 01:15:24;;;;;;;20.13;10.43;;;3.70;99.90;;;;;;5109631;28;20155;-83
2022/11/26 01:17:51;;;;;;;19.05;10.50;;;3.70;99.90;;;;;;5108726;28;20047;-83
2022/11/26 01:20:20;;;;;;;18.52;9.55;;;3.60;99.90;;;;;;5109427;28;20048;-83
2022/11/26 01:22:46;;;;;;;23.98;11.00;;;3.70;99.90;;;;;;5109121;28;20075;-84
2022/11/26 01:25:12;;;;;;;23.38;11.32;;;3.60;99.90;;;;;;5107899;28;20510;-83
2022/11/26 01:27:37;;;;;;;27.17;11.10;;;3.60;99.90;;;;;;5109309;28;20126;-84
2022/11/26 01:30:10;;;;;;;16.02;10.20;;;3.50;99.90;;;;;;5109340;28;20097;-83
2022/11/26 01:32:36;;;;;;;17.85;9.75;;;3.50;99.90;;;;;;5108513;28;20144;-83
2022/11/26 01:35:01;;;;;;;23.75;10.07;;;3.50;99.90;;;;;;5108472;28;20071;-83
2022/11/26 01:37:27;;;;;;;18.75;10.07;;;3.50;99.90;;;;;;5071868;28;20425;-83
2022/11/26 01:39:52;;;;;;;31.08;11.52;;;3.50;99.90;;;;;;5088464;28;20034;-83
2022/11/26 01:42:39;;;;;;;23.58;10.82;;;3.40;99.90;;;;;;5088119;28;20046;-84
2022/11/26 01:45:16;;;;;;;21.30;9.95;;;3.40;99.90;;;;;;5090657;28;20048;-83
2022/11/26 01:47:42;;;;;;;34.63;10.77;;;3.40;99.90;;;;;;5108766;28;20055;-84
2022/11/26 01:50:26;;;;;;;26.58;9.93;;;3.40;99.90;;;;;;5108801;28;20132;-83
2022/11/26 01:53:11;;;;;;;18.83;9.32;;;3.30;99.90;;;;;;5091784;28;20044;-83
2022/11/26 01:55:50;;;;;;;16.80;10.07;;;3.30;99.90;;;;;;5107805;28;20162;-84
2022/11/26 01:58:21;;;;;;;19.83;9.18;;;3.30;99.90;;;;;;5108746;28;20047;-83
2022/11/26 02:00:49;;;;;;;15.48;9.45;;;3.30;99.90;;;;;;5108159;28;20079;-83
2022/11/26 02:03:16;;;;;;;25.73;9.95;;;3.20;99.90;;;;;;5108707;28;20451;-84
2022/11/26 02:05:49;;;;;;;17.05;9.40;;;3.20;99.90;;;;;;5108051;28;20048;-84
2022/11/26 02:08:14;;;;;;;17.92;8.63;;;3.30;99.90;;;;;;5108261;28;20122;-83
2022/11/26 02:10:40;;;;;;;13.40;8.80;;;3.20;99.90;;;;;;5106268;28;20557;-84
2022/11/26 02:13:06;;;;;;;17.40;8.63;;;3.10;99.90;;;;;;5106543;28;20065;-84
2022/11/26 02:15:46;;;;;;;13.98;8.70;;;3.00;99.90;;;;;;5106451;28;20409;-83
2022/11/26 02:18:11;;;;;;;16.20;9.45;;;3.00;99.90;;;;;;5108232;28;20065;-84
2022/11/26 02:20:41;;;;;;;14.02;8.40;;;3.10;99.90;;;;;;5109192;28;20035;-83
2022/11/26 02:23:18;;;;;;;20.40;9.77;;;3.00;99.90;;;;;;5107929;28;20068;-83
2022/11/26 02:26:11;;;;;;;24.20;9.85;;;3.00;99.90;;;;;;5090635;28;20058;-83
2022/11/26 02:29:15;;;;;;;22.40;9.32;;;3.00;99.90;;;;;;5106268;28;20394;-83
2022/11/26 02:31:52;;;;;;;23.05;9.90;;;2.90;99.90;;;;;;5107730;28;20655;-83
2022/11/26 02:34:43;;;;;;;18.30;8.88;;;2.90;99.90;;;;;;5090529;28;20043;-83
2022/11/26 02:37:15;;;;;;;18.50;9.25;;;2.90;99.90;;;;;;5096323;28;20051;-83
2022/11/26 02:39:41;;;;;;;23.80;9.88;;;2.90;99.90;;;;;;5107566;28;20111;-84
2022/11/26 02:42:21;;;;;;;19.02;9.85;;;2.80;99.90;;;;;;5107154;28;20138;-83
2022/11/26 02:44:47;;;;;;;61.17;12.23;;;2.80;99.90;;;;;;5107643;28;20040;-84
2022/11/26 02:47:17;;;;;;;23.92;10.15;;;2.80;99.90;;;;;;5107132;28;20049;-84
2022/11/26 02:49:44;;;;;;;38.33;10.50;;;2.80;99.90;;;;;;5090570;28;20046;-84
2022/11/26 02:52:13;;;;;;;50.88;12.82;;;2.80;99.90;;;;;;5086037;28;20044;-84
2022/11/26 02:54:40;;;;;;;27.42;10.85;;;2.80;99.90;;;;;;5086867;28;20043;-84
2022/11/26 02:57:10;;;;;;;36.78;12.10;;;2.70;99.90;;;;;;5069885;28;20036;-84
2022/11/26 02:59:37;;;;;;;19.15;9.60;;;2.70;99.90;;;;;;5101275;28;20055;-84
2022/11/26 03:02:10;;;;;;;33.17;12.07;;;2.70;99.90;;;;;;5107121;28;20083;-84
2022/11/26 03:04:44;;;;;;;24.00;10.38;;;2.70;99.90;;;;;;5107714;28;20413;-84
2022/11/26 03:07:13;;;;;;;23.50;10.52;;;2.70;99.90;;;;;;5106877;28;20391;-84
2022/11/26 03:09:48;;;;;;;22.42;11.13;;;2.60;99.90;;;;;;5108459;28;20130;-84
2022/11/26 03:12:14;;;;;;;25.50;10.88;;;2.60;99.90;;;;;;5107583;28;20048;-84
2022/11/26 03:14:39;;;;;;;28.60;11.05;;;2.60;99.90;;;;;;5107845;28;20043;-83
2022/11/26 03:17:05;;;;;;;26.00;10.88;;;2.60;99.90;;;;;;5090321;28;20084;-84
2022/11/26 03:19:30;;;;;;;48.25;12.20;;;2.50;99.90;;;;;;5106777;28;20126;-84
2022/11/26 03:21:56;;;;;;;20.40;10.20;;;2.60;99.90;;;;;;5107010;28;20244;-83
2022/11/26 03:24:22;;;;;;;23.45;10.73;;;2.50;99.90;;;;;;5106403;28;20493;-83
2022/11/26 03:26:47;;;;;;;26.17;10.52;;;2.50;99.90;;;;;;5106206;28;20051;-84
2022/11/26 03:29:13;;;;;;;22.50;11.35;;;2.50;99.90;;;;;;5089765;28;20068;-84
2022/11/26 03:31:38;;;;;;;20.27;10.35;;;2.50;99.90;;;;;;5108149;28;20046;-84
2022/11/26 03:34:04;;;;;;;30.98;12.25;;;2.50;99.90;;;;;;5107192;28;20044;-84
2022/11/26 03:36:29;;;;;;;20.98;10.15;;;2.50;99.90;;;;;;5107397;28;20513;-84
2022/11/26 03:38:55;;;;;;;16.17;9.85;;;2.50;99.90;;;;;;5108236;28;20089;-84
2022/11/26 03:41:21;;;;;;;18.95;9.98;;;2.50;99.90;;;;;;5107313;28;20044;-84
2022/11/26 03:43:47;;;;;;;31.42;11.57;;;2.50;99.90;;;;;;5108361;28;20649;-84
2022/11/26 03:46:16;;;;;;;17.70;10.02;;;2.50;99.90;;;;;;5105166;28;20047;-84
2022/11/26 03:48:41;;;;;;;17.83;10.35;;;2.50;99.90;;;;;;5107948;28;20823;-84
2022/11/26 03:51:07;;;;;;;17.98;9.23;;;2.50;99.90;;;;;;5107851;28;20172;-84
2022/11/26 03:53:33;;;;;;;16.38;9.13;;;2.50;99.90;;;;;;5105907;28;20052;-84
2022/11/26 03:55:58;;;;;;;16.23;10.40;;;2.40;99.90;;;;;;5122821;28;20062;-83
2022/11/26 03:58:24;;;;;;;16.13;10.27;;;2.40;99.90;;;;;;5107481;28;20164;-84
2022/11/26 04:00:49;;;;;;;21.88;10.43;;;2.40;99.90;;;;;;5105069;28;20059;-84
2022/11/26 04:03:15;;;;;;;21.08;11.32;;;2.40;99.90;;;;;;5108028;28;20136;-84
2022/11/26 04:05:41;;;;;;;19.48;10.32;;;2.40;99.90;;;;;;5106280;28;20090;-84
2022/11/26 04:08:06;;;;;;;32.65;12.57;;;2.50;99.90;;;;;;5106922;28;20043;-83
2022/11/26 04:10:32;;;;;;;20.40;10.77;;;2.50;99.90;;;;;;5106305;28;20508;-84
2022/11/26 04:12:57;;;;;;;17.80;10.15;;;2.50;99.90;;;;;;5104175;28;20093;-84
2022/11/26 04:15:23;;;;;;;24.55;12.85;;;2.50;99.90;;;;;;5089250;28;20131;-84
2022/11/26 04:17:49;;;;;;;25.95;12.70;;;2.50;99.90;;;;;;5106681;28;20449;-83
2022/11/26 04:20:14;;;;;;;22.20;11.32;;;2.50;99.90;;;;;;5106581;28;20047;-84
2022/11/26 04:22:41;;;;;;;20.52;10.63;;;2.50;99.90;;;;;;5107071;28;20075;-84
2022/11/26 04:25:07;;;;;;;34.78;12.00;;;2.50;99.90;;;;;;5107732;28;20039;-83
2022/11/26 04:27:33;;;;;;;27.55;13.88;;;2.50;99.90;;;;;;5108393;28;20043;-84
2022/11/26 04:29:58;;;;;;;20.85;10.68;;;2.50;99.90;;;;;;5110229;28;20035;-83
2022/11/26 04:32:24;;;;;;;24.13;12.02;;;2.60;99.90;;;;;;5110155;28;20038;-83
2022/11/26 04:34:50;;;;;;;24.88;12.15;;;2.60;99.90;;;;;;5093344;28;20477;-83
2022/11/26 04:37:16;;;;;;;36.55;12.88;;;2.60;99.90;;;;;;5109873;28;20051;-84
2022/11/26 04:39:41;;;;;;;23.63;11.60;;;2.50;99.90;;;;;;5092476;28;20040;-84
2022/11/26 04:42:07;;;;;;;22.88;11.88;;;2.50;99.90;;;;;;5088181;28;20044;-84
2022/11/26 04:44:32;;;;;;;29.45;12.48;;;2.50;99.90;;;;;;5089707;28;20052;-83
2022/11/26 04:46:58;;;;;;;34.85;13.82;;;2.50;99.90;;;;;;5089504;28;20139;-83
2022/11/26 04:49:24;;;;;;;36.58;13.00;;;2.60;99.90;;;;;;5089653;28;20052;-83
2022/11/26 04:51:49;;;;;;;67.65;15.90;;;2.50;99.90;;;;;;5088936;28;20044;-83
2022/11/26 04:54:15;;;;;;;70.10;17.23;;;2.50;99.90;;;;;;5094208;28;20040;-83
2022/11/26 04:56:40;;;;;;;29.27;14.13;;;2.50;99.90;;;;;;5107380;28;20039;-84
2022/11/26 04:59:06;;;;;;;32.33;14.70;;;2.50;99.90;;;;;;5110032;28;20057;-83
2022/11/26 05:01:32;;;;;;;25.63;13.82;;;2.60;99.90;;;;;;5106884;28;20427;-84
2022/11/26 05:03:57;;;;;;;31.05;14.25;;;2.60;99.90;;;;;;5109825;28;20104;-82
2022/11/26 05:06:23;;;;;;;29.30;14.10;;;2.60;99.90;;;;;;5092442;28;20459;-83
2022/11/26 05:08:48;;;;;;;41.90;15.98;;;2.60;99.90;;;;;;5109421;28;20168;-83
2022/11/26 05:11:14;;;;;;;32.28;14.77;;;2.60;99.90;;;;;;5109329;28;20039;-83
2022/11/26 05:13:39;;;;;;;46.30;17.30;;;2.60;99.90;;;;;;5109800;28;20039;-82
2022/11/26 05:16:05;;;;;;;38.20;16.88;;;2.60;99.90;;;;;;5108035;28;20436;-82
2022/11/26 05:18:31;;;;;;;42.50;15.07;;;2.60;99.90;;;;;;5109807;28;20044;-82
2022/11/26 05:20:56;;;;;;;35.83;14.52;;;2.60;99.90;;;;;;5101175;28;20127;-82
2022/11/26 05:23:22;;;;;;;40.45;15.38;;;2.60;99.90;;;;;;5094158;28;20048;-82
2022/11/26 05:25:49;;;;;;;41.65;15.23;;;2.60;99.90;;;;;;5108779;28;20051;-83
2022/11/26 05:28:15;;;;;;;43.75;16.40;;;2.60;99.90;;;;;;5091974;28;20036;-83
2022/11/26 05:30:40;;;;;;;42.25;16.08;;;2.70;99.90;;;;;;5106885;28;20096;-83
2022/11/26 05:33:06;;;;;;;30.65;13.57;;;2.60;99.90;;;;;;5108844;28;20051;-82
2022/11/26 05:35:31;;;;;;;31.25;15.40;;;2.60;99.90;;;;;;5109096;28;20062;-82
2022/11/26 05:37:57;;;;;;;61.63;17.38;;;2.60;99.90;;;;;;5108918;28;20485;-83
2022/11/26 05:40:22;;;;;;;68.38;17.65;;;2.60;99.90;;;;;;5108385;28;20135;-82
2022/11/26 05:42:48;;;;;;;84.50;20.08;;;2.60;99.90;;;;;;5091468;28;20074;-83
2022/11/26 05:45:16;;;;;;;44.55;16.23;;;2.60;99.90;;;;;;5090293;28;20052;-82
2022/11/26 05:47:42;;;;;;;40.75;16.13;;;3.60;99.90;;;;;;5109810;28;20445;-82
2022/11/26 05:50:08;;;;;;;76.60;21.10;;;2.60;99.90;;;;;;5110390;28;20046;-83
2022/11/26 05:52:41;;;;;;;37.22;16.55;;;2.70;99.90;;;;;;5108480;28;20043;-83
2022/11/26 05:55:10;;;;;;;57.70;19.38;;;2.70;99.90;;;;;;5108745;28;20454;-83
2022/11/26 05:57:36;;;;;;;42.75;17.92;;;2.50;99.90;;;;;;5106672;28;20058;-83
2022/11/26 06:00:02;;;;;;;46.13;17.88;;;2.70;99.90;;;;;;5098582;28;20040;-82
2022/11/26 06:02:28;;;;;;;81.38;20.30;;;2.70;99.90;;;;;;5108416;28;20105;-83
2022/11/26 06:04:53;;;;;;;81.65;19.55;;;2.80;99.90;;;;;;5108419;28;20116;-82
2022/11/26 06:07:19;;;;;;;76.32;19.42;;;2.80;99.90;;;;;;5109757;28;20047;-82
2022/11/26 06:09:44;;;;;;;75.65;20.90;;;2.80;99.90;;;;;;5108798;28;20176;-82
2022/11/26 06:12:11;;;;;;;99.13;25.00;;;2.80;99.90;;;;;;5107369;28;20566;-83
2022/11/26 06:14:36;;;;;;;47.10;16.83;;;2.80;99.90;;;;;;5105254;28;20069;-83
2022/11/26 06:17:02;;;;;;;40.20;16.77;;;2.80;99.90;;;;;;5105756;28;20082;-83
2022/11/26 06:19:28;;;;;;;75.00;19.50;;;2.80;99.90;;;;;;5108383;28;20047;-82
2022/11/26 06:21:53;;;;;;;78.78;21.27;;;2.90;99.90;;;;;;5107758;28;20054;-83
2022/11/26 06:24:19;;;;;;;49.90;18.10;;;2.80;99.90;;;;;;5107624;28;20098;-82
2022/11/26 06:26:44;;;;;;;46.53;17.75;;;2.80;99.90;;;;;;5089836;28;20048;-83
2022/11/26 06:29:10;;;;;;;58.13;18.65;;;2.90;99.90;;;;;;5103789;28;20058;-83
2022/11/26 06:31:35;;;;;;;58.85;18.38;;;3.30;99.90;;;;;;5105060;28;20035;-82
2022/11/26 06:34:01;;;;;;;47.10;18.58;;;2.80;99.90;;;;;;5107996;28;20046;-81
2022/11/26 06:36:27;;;;;;;132.27;23.80;;;2.80;99.90;;;;;;5107949;28;20134;-82
2022/11/26 06:38:52;;;;;;;347.17;41.58;;;2.90;99.90;;;;;;5106958;28;20036;-83
2022/11/26 06:41:18;;;;;;;100.45;23.58;;;2.90;99.90;;;;;;5108858;28;20564;-83
2022/11/26 06:43:46;;;;;;;82.07;21.42;;;2.90;99.90;;;;;;5105076;28;20091;-82
2022/11/26 06:46:12;;;;;;;51.40;17.40;;;2.90;99.90;;;;;;5099459;27;20087;-82
2022/11/26 06:48:38;;;;;;;48.10;16.73;;;3.00;99.90;;;;;;5082744;28;20391;-82
2022/11/26 06:51:09;;;;;;;68.13;19.80;;;3.00;99.90;;;;;;5104661;27;20051;-83
2022/11/26 06:53:35;;;;;;;102.45;23.60;;;3.00;99.90;;;;;;5104005;28;20055;-83
2022/11/26 06:56:02;;;;;;;93.40;22.55;;;3.00;99.90;;;;;;5106213;28;20047;-82
2022/11/26 06:58:28;;;;;;;91.82;21.50;;;3.00;99.90;;;;;;5107703;28;20036;-82
2022/11/26 07:00:54;;;;;;;50.63;18.33;;;3.00;99.90;;;;;;5090809;28;20572;-83
2022/11/26 07:03:20;;;;;;;86.97;20.55;;;3.00;99.90;;;;;;5107567;28;20193;-82
2022/11/26 07:05:45;;;;;;;35.17;15.05;;;3.00;99.90;;;;;;5107752;28;20082;-82
2022/11/26 07:08:11;;;;;;;38.80;14.23;;;2.90;99.90;;;;;;5108602;28;20098;-82
2022/11/26 07:10:37;;;;;;;81.25;20.42;;;2.90;99.90;;;;;;5106857;28;20039;-82
2022/11/26 07:13:05;;;;;;;81.22;20.98;;;2.90;99.90;;;;;;5106239;28;20817;-82
2022/11/26 07:15:31;;;;;;;102.57;20.38;;;2.90;99.90;;;;;;5106578;28;20166;-82
2022/11/26 07:17:58;;;;;;;95.90;21.65;;;2.90;99.90;;;;;;5104639;27;20100;-82
2022/11/26 07:20:24;;;;;;;52.63;14.85;;;2.90;99.90;;;;;;5098413;28;20042;-82
2022/11/26 07:22:49;;;;;;;78.50;17.45;;;2.90;99.90;;;;;;5106483;28;20043;-82
2022/11/26 07:25:16;;;;;;;75.38;17.95;;;2.90;99.90;;;;;;5106648;28;20230;-83
2022/11/26 07:27:42;;;;;;;100.10;22.30;;;2.90;99.90;;;;;;5086546;28;20055;-83
2022/11/26 07:30:08;;;;;;;84.55;20.75;;;2.90;99.90;;;;;;5104000;28;20044;-82
2022/11/26 07:32:34;;;;;;;81.70;17.50;;;2.90;99.90;;;;;;5103160;28;20181;-82
2022/11/26 07:35:01;;;;;;;122.13;23.70;;;2.90;99.90;;;;;;5107240;28;20071;-83
2022/11/26 07:37:26;;;;;;;56.75;18.05;;;2.90;99.90;;;;;;5106556;28;20055;-83
2022/11/26 07:39:52;;;;;;;108.40;23.98;;;2.90;99.90;;;;;;5106214;28;20421;-83
2022/11/26 07:42:18;;;;;;;52.53;16.83;;;2.90;99.90;;;;;;5105414;28;20047;-82
2022/11/26 07:44:43;;;;;;;46.65;15.02;;;3.00;99.90;;;;;;5106043;28;20035;-83
2022/11/26 07:47:09;;;;;;;51.28;16.83;;;3.00;99.90;;;;;;5106768;28;20051;-83
2022/11/26 07:49:36;;;;;;;111.65;25.38;;;3.00;99.90;;;;;;5102948;28;20495;-83
2022/11/26 07:52:02;;;;;;;46.22;15.48;;;3.00;99.90;;;;;;5106076;28;20051;-83
2022/11/26 07:54:28;;;;;;;75.05;19.65;;;3.10;99.90;;;;;;5085675;28;20127;-83
2022/11/26 07:56:53;;;;;;;40.58;15.75;;;3.10;99.90;;;;;;5101836;28;20054;-84
2022/11/26 07:59:19;;;;;;;48.22;17.67;;;3.10;99.90;;;;;;5111098;28;20389;-82
2022/11/26 08:01:44;;;;;;;36.55;14.70;;;3.10;99.90;;;;;;5110385;28;20047;-82
2022/11/26 08:04:10;;;;;;;49.88;17.33;;;3.10;99.90;;;;;;5108416;28;20067;-83
2022/11/26 08:06:36;;;;;;;32.80;15.00;;;3.20;99.90;;;;;;5106502;28;20413;-81
2022/11/26 08:09:02;;;;;;;35.08;15.77;;;3.20;99.90;;;;;;5109478;28;20071;-82
2022/11/26 08:11:30;;;;;;;29.70;15.00;;;3.30;99.90;;;;;;5109571;28;20554;-83
2022/11/26 08:14:05;;;;;;;37.65;16.73;;;3.30;99.90;;;;;;5112100;28;20048;-81
2022/11/26 08:16:31;;;;;;;37.03;15.88;;;3.40;99.90;;;;;;5110580;28;20051;-83
2022/11/26 08:18:59;;;;;;;37.40;16.33;;;3.40;99.90;;;;;;5110560;28;20035;-81
2022/11/26 08:21:25;;;;;;;39.72;16.65;;;3.40;99.90;;;;;;5111448;28;20084;-82
2022/11/26 08:23:52;;;;;;;41.58;16.98;;;3.50;99.90;;;;;;5110810;28;20120;-82
2022/11/26 08:26:18;;;;;;;44.25;17.45;;;3.60;99.90;;;;;;5109515;28;20036;-82
2022/11/26 08:28:45;;;;;;;34.30;17.00;;;3.70;99.90;;;;;;5111417;28;20504;-82
2022/11/26 08:31:12;;;;;;;35.13;17.40;;;4.60;99.90;;;;;;5110221;28;20391;-82
2022/11/26 08:33:39;;;;;;;35.50;16.75;;;3.80;99.90;;;;;;5106085;28;20128;-82
2022/11/26 08:36:05;;;;;;;31.83;16.08;;;3.80;99.90;;;;;;5091173;28;20040;-82
2022/11/26 08:38:31;;;;;;;34.83;16.73;;;3.90;99.90;;;;;;5091223;28;20032;-83
2022/11/26 08:41:01;;;;;;;40.03;16.73;;;4.00;99.90;;;;;;5090523;28;20050;-82
2022/11/26 08:43:27;;;;;;;38.80;17.05;;;4.00;99.90;;;;;;5089551;28;20043;-82
2022/11/26 08:45:54;;;;;;;33.85;15.52;;;4.00;99.90;;;;;;5089137;28;20043;-83
2022/11/26 08:48:20;;;;;;;37.05;17.15;;;4.10;99.90;;;;;;5099208;28;20051;-82
2022/11/26 08:50:46;;;;;;;34.55;17.70;;;4.20;99.90;;;;;;5089144;28;20083;-82
2022/11/26 08:53:11;;;;;;;38.40;18.67;;;4.20;99.90;;;;;;5089565;28;20397;-82
2022/11/26 08:55:37;;;;;;;39.08;17.13;;;4.30;99.90;;;;;;5072527;28;20127;-83
2022/11/26 08:58:02;;;;;;;40.90;18.02;;;4.30;99.90;;;;;;5090145;28;20058;-82
2022/11/26 09:00:28;;;;;;;43.03;19.23;;;4.40;99.90;;;;;;5089218;28;20063;-81
2022/11/26 09:02:54;;;;;;;37.70;18.85;;;4.50;99.90;;;;;;5089188;28;20113;-81
2022/11/26 09:05:19;;;;;;;39.75;18.23;;;4.60;99.90;;;;;;5100280;28;20112;-82
2022/11/26 09:07:45;;;;;;;42.88;18.45;;;4.80;99.90;;;;;;5108787;28;20113;-82
2022/11/26 09:10:11;;;;;;;36.35;17.50;;;4.70;99.90;;;;;;5104270;28;20676;-81
2022/11/26 09:12:37;;;;;;;37.80;18.33;;;4.70;99.90;;;;;;5106821;28;20051;-84
2022/11/26 09:15:03;;;;;;;38.83;18.63;;;4.70;99.90;;;;;;5112352;27;20040;-83
2022/11/26 09:17:28;;;;;;;45.50;18.70;;;4.80;99.90;;;;;;5089266;28;20501;-82
2022/11/26 09:19:55;;;;;;;40.40;18.52;;;4.80;99.90;;;;;;5108093;28;20136;-83
2022/11/26 09:22:22;;;;;;;45.10;18.92;;;4.90;99.90;;;;;;5097146;28;20062;-83
2022/11/26 09:24:47;;;;;;;45.42;18.55;;;4.90;99.90;;;;;;5109361;28;20138;-83
2022/11/26 09:27:13;;;;;;;42.20;20.52;;;5.00;99.90;;;;;;5108749;28;20192;-83
2022/11/26 09:29:38;;;;;;;46.17;19.27;;;5.10;99.90;;;;;;5108102;28;20059;-81
2022/11/26 09:32:04;;;;;;;47.40;21.02;;;5.10;99.90;;;;;;5108071;28;20091;-83
2022/11/26 09:34:30;;;;;;;46.97;18.77;;;5.10;99.90;;;;;;5108688;28;20048;-83
2022/11/26 09:36:55;;;;;;;40.47;19.60;;;5.20;99.90;;;;;;5091987;28;20044;-83
2022/11/26 09:39:21;;;;;;;46.38;20.50;;;5.20;99.90;;;;;;5108158;28;20056;-85
2022/11/26 09:42:03;;;;;;;41.55;19.92;;;5.60;99.90;;;;;;5107591;28;20394;-86
2022/11/26 09:44:50;;;;;;;43.90;19.80;;;5.30;99.90;;;;;;5087663;28;20044;-85
2022/11/26 09:47:22;;;;;;;36.63;18.83;;;5.30;99.90;;;;;;5102151;28;20085;-85
2022/11/26 09:49:50;;;;;;;43.03;20.60;;;5.40;99.90;;;;;;5089769;28;20044;-83
2022/11/26 09:52:19;;;;;;;46.05;21.85;;;5.50;99.90;;;;;;5106916;28;20090;-81
2022/11/26 09:54:46;;;;;;;42.58;21.65;;;5.50;99.90;;;;;;5090461;28;20040;-80
2022/11/26 09:57:24;;;;;;;47.33;21.58;;;5.70;99.90;;;;;;5108540;28;20086;-81
2022/11/26 09:59:52;;;;;;;44.63;22.08;;;5.70;99.90;;;;;;5108296;28;20123;-80
2022/11/26 10:02:18;;;;;;;42.70;21.92;;;5.70;99.90;;;;;;5107852;28;20054;-81
2022/11/26 10:04:45;;;;;;;57.72;24.73;;;5.80;99.90;;;;;;5104991;28;20475;-80
2022/11/26 10:07:45;;;;;;;50.45;25.50;;;5.80;99.90;;;;;;5109351;28;20053;-81
2022/11/26 10:10:26;;;;;;;63.72;25.27;;;5.90;99.90;;;;;;5091833;28;20058;-82
2022/11/26 10:13:18;;;;;;;62.88;26.60;;;6.00;99.90;;;;;;5108438;28;20736;-82
2022/11/26 10:16:18;;;;;;;64.38;27.75;;;6.10;99.90;;;;;;5087746;28;20101;-81
2022/11/26 10:18:55;;;;;;;65.13;25.88;;;6.60;99.90;;;;;;5067249;28;20452;-84
2022/11/26 10:21:20;;;;;;;59.22;28.83;;;6.10;99.90;;;;;;5086830;28;20612;-82
2022/11/26 10:24:32;;;;;;;77.55;31.50;;;6.20;99.90;;;;;;5105715;28;20055;-83
2022/11/26 10:27:02;;;;;;;80.65;31.02;;;6.30;99.90;;;;;;5080524;28;20074;-83
2022/11/26 10:29:39;;;;;;;75.95;30.83;;;6.30;99.90;;;;;;5089310;28;20058;-85
2022/11/26 10:32:17;;;;;;;82.70;33.65;;;6.30;99.90;;;;;;5087828;28;20096;-87
2022/11/26 10:34:51;;;;;;;77.25;31.00;;;6.30;99.90;;;;;;5088042;28;20055;-85
2022/11/26 10:37:19;;;;;;;82.80;33.05;;;6.40;99.90;;;;;;5088582;28;20052;-82
2022/11/26 10:39:44;;;;;;;65.72;29.17;;;6.40;99.90;;;;;;5098539;28;20073;-83
2022/11/26 10:42:19;;;;;;;101.43;35.20;;;6.50;99.90;;;;;;5107339;28;20085;-87
2022/11/26 10:44:47;;;;;;;98.35;34.03;;;6.60;99.90;;;;;;5108220;28;20035;-84
2022/11/26 10:47:22;;;;;;;98.32;33.90;;;7.50;99.90;;;;;;5108069;28;20112;-84
2022/11/26 10:49:52;;;;;;;98.07;35.05;;;6.50;99.90;;;;;;5107728;28;20048;-87
2022/11/26 10:52:25;;;;;;;90.38;32.67;;;6.80;99.90;;;;;;5106981;28;20043;-83
2022/11/26 10:55:21;;;;;;;97.53;33.88;;;6.80;99.90;;;;;;5091380;28;20048;-85
2022/11/26 10:58:14;;;;;;;86.88;34.70;;;7.00;99.90;;;;;;5107923;28;20059;-83
2022/11/26 11:01:04;;;;;;;96.38;34.67;;;7.00;99.90;;;;;;5096826;28;20040;-82
2022/11/26 11:03:38;;;;;;;100.40;35.97;;;6.90;99.90;;;;;;5101830;27;20059;-82
2022/11/26 11:06:19;;;;;;;98.53;35.75;;;6.90;99.90;;;;;;5106913;28;20044;-82
2022/11/26 11:08:46;;;;;;;97.32;35.67;;;6.90;99.90;;;;;;5107641;28;20130;-82
2022/11/26 11:11:24;;;;;;;94.70;36.58;;;7.10;99.90;;;;;;5090437;28;20039;-82
2022/11/26 11:13:51;;;;;;;94.75;35.13;;;7.80;99.90;;;;;;5107815;28;20574;-82
2022/11/26 11:16:29;;;;;;;87.15;35.08;;;7.10;99.90;;;;;;5090801;28;20039;-83
2022/11/26 11:18:57;;;;;;;83.57;33.80;;;7.20;99.90;;;;;;5106227;28;20126;-83
2022/11/26 11:21:37;;;;;;;84.80;34.30;;;7.50;99.90;;;;;;5103538;28;20047;-82
2022/11/26 11:24:09;;;;;;;85.18;34.47;;;7.30;99.90;;;;;;5104088;28;20036;-82
2022/11/26 11:26:47;;;;;;;77.57;32.45;;;7.50;99.90;;;;;;5101709;28;20055;-83
2022/11/26 11:29:27;;;;;;;86.38;32.72;;;7.30;99.90;;;;;;5105744;27;20047;-82
2022/11/26 11:31:56;;;;;;;72.63;31.15;;;7.40;99.90;;;;;;5107048;28;20139;-84
2022/11/26 11:34:37;;;;;;;69.90;30.48;;;7.50;99.90;;;;;;5106123;28;20048;-83
2022/11/26 11:37:19;;;;;;;70.50;28.52;;;7.30;99.90;;;;;;5092809;28;20043;-82
2022/11/26 11:40:00;;;;;;;64.70;27.65;;;7.60;99.90;;;;;;5100612;28;20043;-83
2022/11/26 11:42:28;;;;;;;67.40;30.13;;;7.40;99.90;;;;;;5089437;28;20048;-82
2022/11/26 11:44:55;;;;;;;74.38;30.60;;;7.30;99.90;;;;;;5106774;28;20095;-81
2022/11/26 11:47:42;;;;;;;61.58;28.60;;;8.00;99.90;;;;;;5108339;28;20067;-82
2022/11/26 11:50:28;;;;;;;67.97;28.88;;;7.70;99.90;;;;;;5084662;28;20514;-82
2022/11/26 11:53:28;;;;;;;65.35;28.60;;;7.50;99.90;;;;;;5105593;28;20047;-83
2022/11/26 11:56:30;;;;;;;59.75;27.17;;;7.60;99.90;;;;;;5096698;28;20490;-82
2022/11/26 11:59:18;;;;;;;62.47;28.23;;;7.70;99.90;;;;;;5075590;28;20091;-82
2022/11/26 12:02:03;;;;;;;55.25;25.05;;;7.90;99.90;;;;;;5105735;28;20087;-83
2022/11/26 12:05:07;;;;;;;63.42;28.13;;;8.10;99.90;;;;;;5123934;28;20482;-82
2022/11/26 12:07:52;;;;;;;66.25;27.02;;;7.80;99.90;;;;;;5106980;28;20044;-83
2022/11/26 12:10:25;;;;;;;65.43;26.45;;;7.80;99.90;;;;;;5086354;28;20052;-82
2022/11/26 12:12:57;;;;;;;54.00;27.08;;;7.90;99.90;;;;;;5103732;28;20052;-82
2022/11/26 12:15:29;;;;;;;55.00;25.42;;;8.10;99.90;;;;;;5106654;28;20250;-82
2022/11/26 12:18:03;;;;;;;51.13;24.73;;;7.90;99.90;;;;;;5120957;28;20083;-82
2022/11/26 12:20:35;;;;;;;49.58;23.98;;;8.30;99.90;;;;;;5106620;28;20052;-82
2022/11/26 12:23:25;;;;;;;53.70;24.83;;;7.90;99.90;;;;;;5106787;28;20501;-83
2022/11/26 12:25:57;;;;;;;54.83;23.90;;;8.10;99.90;;;;;;5104426;28;20058;-83
2022/11/26 12:28:30;;;;;;;54.03;24.23;;;7.80;99.90;;;;;;5106588;28;20054;-83
2022/11/26 12:31:00;;;;;;;54.90;24.13;;;8.00;99.90;;;;;;5106886;28;20085;-83
2022/11/26 12:33:51;;;;;;;47.70;23.17;;;7.90;99.90;;;;;;5105980;28;20062;-83
2022/11/26 12:36:35;;;;;;;51.58;23.08;;;8.10;99.90;;;;;;5105411;28;20090;-83
2022/11/26 12:39:17;;;;;;;60.00;24.52;;;8.10;99.90;;;;;;5106595;28;20043;-82
2022/11/26 12:42:03;;;;;;;60.33;26.23;;;8.00;99.90;;;;;;5105339;28;20733;-84
2022/11/26 12:44:45;;;;;;;53.75;23.58;;;8.00;99.90;;;;;;5108516;28;20054;-84
2022/11/26 12:47:20;;;;;;;46.20;22.52;;;;;;;;;;5107782;28;20120;-83
2022/11/26 12:50:00;;;;;;;43.33;20.60;;;8.10;99.90;;;;;;5107414;28;20047;-83
2022/11/26 12:52:32;;;;;;;49.15;24.05;;;8.10;99.90;;;;;;5109529;28;20044;-83